sensor_id;sensor_type;location;lat;lon;timestamp;pressure;altitude;pressure_sealevel;temperature;humidity
30598;BME280;17365;48.878;8.334;2024-01-30T01:28:25;101499.69;;;2.72;100.00
30598;BME280;17365;48.878;8.334;2024-01-30T01:30:51;101497.38;;;2.93;100.00
30598;BME280;17365;48.878;8.334;2024-01-30T01:33:16;101497.78;;;2.84;100.00
30598;BME280;17365;48.878;8.334;2024-01-30T01:35:42;101493.94;;;2.92;100.00
30598;BME280;17365;48.878;8.334;2024-01-30T01:38:07;101494.25;;;2.82;100.00
30598;BME280;17365;48.878;8.334;2024-01-30T01:40:32;101485.22;;;2.89;100.00
30598;BME280;17365;48.878;8.334;2024-01-30T01:42:58;101491.50;;;2.79;100.00
30598;BME280;17365;48.878;8.334;2024-01-30T01:45:23;101483.22;;;2.83;100.00
30598;BME280;17365;48.878;8.334;2024-01-30T01:47:51;101477.88;;;2.95;100.00
30598;BME280;17365;48.878;8.334;2024-01-30T01:50:16;101476.41;;;2.84;100.00
30598;BME280;17365;48.878;8.334;2024-01-30T01:52:47;101477.97;;;2.82;100.00
30598;BME280;17365;48.878;8.334;2024-01-30T01:55:12;101478.19;;;2.70;100.00
30598;BME280;17365;48.878;8.334;2024-01-30T01:57:37;101478.41;;;2.89;100.00
30598;BME280;17365;48.878;8.334;2024-01-30T02:00:03;101477.88;;;2.64;100.00
30598;BME280;17365;48.878;8.334;2024-01-30T02:02:30;101471.19;;;2.82;100.00
30598;BME280;17365;48.878;8.334;2024-01-30T02:04:56;101465.81;;;2.78;100.00
30598;BME280;17365;48.878;8.334;2024-01-30T02:07:21;101474.16;;;2.74;100.00
30598;BME280;17365;48.878;8.334;2024-01-30T02:09:47;101483.53;;;2.58;100.00
30598;BME280;17365;48.878;8.334;2024-01-30T02:12:12;101470.94;;;2.78;100.00
30598;BME280;17365;48.878;8.334;2024-01-30T02:14:44;101474.94;;;2.73;100.00
30598;BME280;17365;48.878;8.334;2024-01-30T02:17:09;101478.66;;;2.63;100.00
30598;BME280;17365;48.878;8.334;2024-01-30T02:19:34;101485.28;;;2.59;100.00
30598;BME280;17365;48.878;8.334;2024-01-30T02:21:59;101479.56;;;2.49;100.00
30598;BME280;17365;48.878;8.334;2024-01-30T02:24:24;101481.34;;;2.50;100.00
30598;BME280;17365;48.878;8.334;2024-01-30T02:26:49;101484.88;;;2.52;100.00
30598;BME280;17365;48.878;8.334;2024-01-30T02:29:15;101480.84;;;2.72;100.00
30598;BME280;17365;48.878;8.334;2024-01-30T02:31:40;101484.78;;;2.81;100.00
30598;BME280;17365;48.878;8.334;2024-01-30T02:34:05;101483.31;;;2.70;100.00
30598;BME280;17365;48.878;8.334;2024-01-30T02:36:30;101483.41;;;2.72;100.00
30598;BME280;17365;48.878;8.334;2024-01-30T02:38:56;101482.91;;;2.62;100.00
30598;BME280;17365;48.878;8.334;2024-01-30T02:41:21;101482.47;;;2.55;100.00
30598;BME280;17365;48.878;8.334;2024-01-30T02:43:46;101484.91;;;2.68;100.00
30598;BME280;17365;48.878;8.334;2024-01-30T02:46:12;101479.78;;;2.68;100.00
30598;BME280;17365;48.878;8.334;2024-01-30T02:48:37;101485.44;;;2.77;100.00
30598;BME280;17365;48.878;8.334;2024-01-30T02:51:04;101481.34;;;2.81;100.00
30598;BME280;17365;48.878;8.334;2024-01-30T02:53:29;101477.09;;;2.81;100.00
30598;BME280;17365;48.878;8.334;2024-01-30T02:55:54;101477.81;;;2.79;100.00
30598;BME280;17365;48.878;8.334;2024-01-30T02:58:19;101477.97;;;2.82;100.00
30598;BME280;17365;48.878;8.334;2024-01-30T03:00:44;101477.00;;;2.63;100.00
30598;BME280;17365;48.878;8.334;2024-01-30T03:03:10;101483.75;;;2.78;100.00
30598;BME280;17365;48.878;8.334;2024-01-30T03:05:35;101482.34;;;2.68;100.00
30598;BME280;17365;48.878;8.334;2024-01-30T03:08:01;101481.19;;;2.78;100.00
30598;BME280;17365;48.878;8.334;2024-01-30T03:10:26;101486.75;;;2.71;100.00
30598;BME280;17365;48.878;8.334;2024-01-30T03:12:51;101487.31;;;2.65;100.00
30598;BME280;17365;48.878;8.334;2024-01-30T03:15:17;101487.03;;;2.75;100.00
30598;BME280;17365;48.878;8.334;2024-01-30T03:17:42;101488.72;;;2.75;100.00
30598;BME280;17365;48.878;8.334;2024-01-30T03:20:07;101487.44;;;2.52;100.00
30598;BME280;17365;48.878;8.334;2024-01-30T03:22:32;101487.25;;;2.49;100.00
30598;BME280;17365;48.878;8.334;2024-01-30T03:24:58;101481.03;;;2.60;100.00
30598;BME280;17365;48.878;8.334;2024-01-30T03:27:23;101494.75;;;2.46;100.00
30598;BME280;17365;48.878;8.334;2024-01-30T03:29:48;101491.84;;;2.54;100.00
30598;BME280;17365;48.878;8.334;2024-01-30T03:32:13;101490.31;;;2.58;100.00
30598;BME280;17365;48.878;8.334;2024-01-30T03:34:39;101489.03;;;2.50;100.00
30598;BME280;17365;48.878;8.334;2024-01-30T03:37:04;101488.69;;;2.44;100.00
30598;BME280;17365;48.878;8.334;2024-01-30T03:39:30;101483.56;;;2.29;100.00
30598;BME280;17365;48.878;8.334;2024-01-30T03:41:55;101480.31;;;2.31;100.00
30598;BME280;17365;48.878;8.334;2024-01-30T03:44:21;101480.13;;;2.28;100.00
30598;BME280;17365;48.878;8.334;2024-01-30T03:46:46;101487.03;;;2.29;100.00
30598;BME280;17365;48.878;8.334;2024-01-30T03:49:11;101483.31;;;2.39;100.00
30598;BME280;17365;48.878;8.334;2024-01-30T03:51:36;101485.94;;;2.41;100.00
30598;BME280;17365;48.878;8.334;2024-01-30T03:54:01;101484.72;;;2.19;100.00
30598;BME280;17365;48.878;8.334;2024-01-30T03:56:27;101484.63;;;2.03;100.00
30598;BME280;17365;48.878;8.334;2024-01-30T03:58:52;101484.25;;;2.26;100.00
30598;BME280;17365;48.878;8.334;2024-01-30T04:01:17;101481.28;;;2.33;100.00
30598;BME280;17365;48.878;8.334;2024-01-30T04:03:42;101482.06;;;2.32;100.00
30598;BME280;17365;48.878;8.334;2024-01-30T04:06:09;101479.94;;;2.25;100.00
30598;BME280;17365;48.878;8.334;2024-01-30T04:08:34;101487.63;;;2.25;100.00
30598;BME280;17365;48.878;8.334;2024-01-30T04:11:02;101489.66;;;2.31;100.00
30598;BME280;17365;48.878;8.334;2024-01-30T04:13:28;101493.00;;;2.45;100.00
30598;BME280;17365;48.878;8.334;2024-01-30T04:15:53;101487.78;;;2.43;100.00
30598;BME280;17365;48.878;8.334;2024-01-30T04:18:20;101494.16;;;2.20;100.00
30598;BME280;17365;48.878;8.334;2024-01-30T04:20:48;101490.63;;;2.33;100.00
30598;BME280;17365;48.878;8.334;2024-01-30T04:23:23;101492.75;;;2.25;100.00
30598;BME280;17365;48.878;8.334;2024-01-30T04:25:49;101482.16;;;2.19;100.00
30598;BME280;17365;48.878;8.334;2024-01-30T04:28:14;101484.47;;;2.29;100.00
30598;BME280;17365;48.878;8.334;2024-01-30T04:30:39;101489.31;;;2.10;100.00
30598;BME280;17365;48.878;8.334;2024-01-30T04:33:05;101482.31;;;2.37;100.00
30598;BME280;17365;48.878;8.334;2024-01-30T04:35:31;101484.19;;;2.40;100.00
30598;BME280;17365;48.878;8.334;2024-01-30T04:37:57;101481.91;;;2.29;100.00
30598;BME280;17365;48.878;8.334;2024-01-30T04:40:22;101483.31;;;2.39;100.00
30598;BME280;17365;48.878;8.334;2024-01-30T04:42:47;101482.25;;;2.21;100.00
30598;BME280;17365;48.878;8.334;2024-01-30T04:45:12;101486.13;;;2.29;100.00
30598;BME280;17365;48.878;8.334;2024-01-30T04:47:38;101482.00;;;2.16;100.00
30598;BME280;17365;48.878;8.334;2024-01-30T04:50:04;101481.97;;;2.31;100.00
30598;BME280;17365;48.878;8.334;2024-01-30T04:52:29;101480.94;;;2.27;100.00
30598;BME280;17365;48.878;8.334;2024-01-30T04:54:55;101478.88;;;2.37;100.00
30598;BME280;17365;48.878;8.334;2024-01-30T04:57:20;101482.09;;;2.18;100.00
30598;BME280;17365;48.878;8.334;2024-01-30T04:59:45;101480.38;;;2.03;100.00
30598;BME280;17365;48.878;8.334;2024-01-30T05:02:10;101484.34;;;2.13;100.00
30598;BME280;17365;48.878;8.334;2024-01-30T05:04:35;101483.56;;;2.14;100.00
30598;BME280;17365;48.878;8.334;2024-01-30T05:07:00;101484.38;;;2.28;100.00
30598;BME280;17365;48.878;8.334;2024-01-30T05:09:26;101492.91;;;2.14;100.00
30598;BME280;17365;48.878;8.334;2024-01-30T05:11:51;101487.63;;;2.25;100.00
30598;BME280;17365;48.878;8.334;2024-01-30T05:14:16;101493.47;;;2.08;100.00
30598;BME280;17365;48.878;8.334;2024-01-30T16:42:48;101580.19;;;9.77;100.00
30598;BME280;17365;48.878;8.334;2024-01-30T16:45:14;101575.06;;;9.78;100.00
30598;BME280;17365;48.878;8.334;2024-01-30T16:47:39;101577.69;;;9.80;100.00
30598;BME280;17365;48.878;8.334;2024-01-30T16:50:05;101583.66;;;9.77;100.00
30598;BME280;17365;48.878;8.334;2024-01-30T16:52:30;101586.03;;;9.70;100.00
30598;BME280;17365;48.878;8.334;2024-01-30T16:54:55;101588.09;;;9.81;100.00
30598;BME280;17365;48.878;8.334;2024-01-30T16:57:20;101580.31;;;9.81;100.00
30598;BME280;17365;48.878;8.334;2024-01-30T16:59:46;101588.94;;;9.80;100.00
30598;BME280;17365;48.878;8.334;2024-01-30T17:02:11;101580.31;;;9.81;100.00
30598;BME280;17365;48.878;8.334;2024-01-30T17:04:36;101592.44;;;9.82;100.00
30598;BME280;17365;48.878;8.334;2024-01-30T17:07:02;101598.50;;;9.83;100.00
30598;BME280;17365;48.878;8.334;2024-01-30T17:09:28;101589.88;;;9.84;100.00
30598;BME280;17365;48.878;8.334;2024-01-30T17:11:53;101581.34;;;9.86;100.00
30598;BME280;17365;48.878;8.334;2024-01-30T17:14:18;101578.63;;;9.83;100.00
30598;BME280;17365;48.878;8.334;2024-01-30T17:16:43;101583.94;;;9.86;100.00
30598;BME280;17365;48.878;8.334;2024-01-30T17:19:10;101588.28;;;9.87;100.00
30598;BME280;17365;48.878;8.334;2024-01-30T17:21:35;101588.31;;;9.89;100.00
30598;BME280;17365;48.878;8.334;2024-01-30T17:24:02;101583.94;;;9.86;100.00
30598;BME280;17365;48.878;8.334;2024-01-30T17:26:27;101583.97;;;9.88;100.00
30598;BME280;17365;48.878;8.334;2024-01-30T17:28:52;101582.09;;;9.84;100.00
30598;BME280;17365;48.878;8.334;2024-01-30T17:31:18;101585.50;;;9.81;100.00
30598;BME280;17365;48.878;8.334;2024-01-30T17:33:43;101587.16;;;9.79;100.00
30598;BME280;17365;48.878;8.334;2024-01-30T17:36:08;101587.22;;;9.81;100.00
30598;BME280;17365;48.878;8.334;2024-01-30T17:38:33;101593.19;;;9.78;100.00
30598;BME280;17365;48.878;8.334;2024-01-30T17:40:58;101606.22;;;9.81;100.00
30598;BME280;17365;48.878;8.334;2024-01-30T17:43:24;101610.69;;;9.85;100.00
30598;BME280;17365;48.878;8.334;2024-01-30T17:45:49;101610.63;;;9.84;100.00
30598;BME280;17365;48.878;8.334;2024-01-30T17:48:14;101608.81;;;9.81;100.00
30598;BME280;17365;48.878;8.334;2024-01-30T17:50:39;101609.56;;;9.77;100.00
30598;BME280;17365;48.878;8.334;2024-01-30T17:53:05;101618.19;;;9.76;100.00
30598;BME280;17365;48.878;8.334;2024-01-30T17:55:30;101609.66;;;9.80;100.00
30598;BME280;17365;48.878;8.334;2024-01-30T17:57:55;101611.59;;;9.87;100.00
30598;BME280;17365;48.878;8.334;2024-01-30T18:00:20;101608.22;;;9.90;100.00
30598;BME280;17365;48.878;8.334;2024-01-30T18:02:46;101619.34;;;9.86;100.00
30598;BME280;17365;48.878;8.334;2024-01-30T18:05:11;101612.53;;;9.89;100.00
30598;BME280;17365;48.878;8.334;2024-01-30T18:07:36;101622.03;;;9.90;100.00
30598;BME280;17365;48.878;8.334;2024-01-30T18:10:04;101623.53;;;9.82;100.00
30598;BME280;17365;48.878;8.334;2024-01-30T18:12:29;101623.53;;;9.82;100.00
30598;BME280;17365;48.878;8.334;2024-01-30T18:14:54;101631.34;;;9.84;100.00
30598;BME280;17365;48.878;8.334;2024-01-30T18:17:19;101627.47;;;9.70;100.00
30598;BME280;17365;48.878;8.334;2024-01-30T18:19:45;101632.66;;;9.70;100.00
30598;BME280;17365;48.878;8.334;2024-01-30T18:22:10;101634.88;;;9.57;100.00
30598;BME280;17365;48.878;8.334;2024-01-30T18:24:35;101632.22;;;9.54;100.00
30598;BME280;17365;48.878;8.334;2024-01-30T18:27:00;101637.41;;;9.54;100.00
30598;BME280;17365;48.878;8.334;2024-01-30T18:29:25;101644.28;;;9.54;100.00
30598;BME280;17365;48.878;8.334;2024-01-30T18:31:51;101638.69;;;9.40;100.00
30598;BME280;17365;48.878;8.334;2024-01-30T18:34:16;101640.81;;;9.26;100.00
30598;BME280;17365;48.878;8.334;2024-01-30T18:36:41;101642.69;;;9.30;100.00
30598;BME280;17365;48.878;8.334;2024-01-30T18:39:07;101634.16;;;9.33;100.00
30598;BME280;17365;48.878;8.334;2024-01-30T18:41:33;101635.81;;;9.31;100.00
30598;BME280;17365;48.878;8.334;2024-01-30T18:43:59;101639.72;;;9.18;100.00
30598;BME280;17365;48.878;8.334;2024-01-30T18:46:26;101636.25;;;9.18;100.00
30598;BME280;17365;48.878;8.334;2024-01-30T18:48:52;101635.31;;;9.16;100.00
